sensor_id;sensor_type;location;lat;lon;timestamp;temperature;humidity
17346;DHT22;8790;53.590;10.002;2023-04-15T00:00:58;10.20;99.90
17346;DHT22;8790;53.590;10.002;2023-04-15T00:03:29;10.20;99.90
17346;DHT22;8790;53.590;10.002;2023-04-15T00:06:01;10.20;99.90
17346;DHT22;8790;53.590;10.002;2023-04-15T00:08:33;10.10;99.90
17346;DHT22;8790;53.590;10.002;2023-04-15T00:11:04;10.10;99.90
17346;DHT22;8790;53.590;10.002;2023-04-15T00:13:36;10.10;99.90
17346;DHT22;8790;53.590;10.002;2023-04-15T00:16:10;10.10;99.90
17346;DHT22;8790;53.590;10.002;2023-04-15T00:18:42;10.10;99.90
17346;DHT22;8790;53.590;10.002;2023-04-15T00:21:13;10.10;99.90
17346;DHT22;8790;53.590;10.002;2023-04-15T00:23:45;10.10;99.90
17346;DHT22;8790;53.590;10.002;2023-04-15T00:26:21;10.00;99.90
17346;DHT22;8790;53.590;10.002;2023-04-15T00:28:53;10.00;99.90
17346;DHT22;8790;53.590;10.002;2023-04-15T00:31:27;10.00;99.90
17346;DHT22;8790;53.590;10.002;2023-04-15T00:33:59;10.10;99.90
17346;DHT22;8790;53.590;10.002;2023-04-15T00:36:31;10.10;99.90
17346;DHT22;8790;53.590;10.002;2023-04-15T00:39:04;10.10;99.90
17346;DHT22;8790;53.590;10.002;2023-04-15T00:41:36;10.20;99.90
17346;DHT22;8790;53.590;10.002;2023-04-15T00:44:09;10.20;99.90
17346;DHT22;8790;53.590;10.002;2023-04-15T00:46:42;10.10;99.90
17346;DHT22;8790;53.590;10.002;2023-04-15T00:49:15;10.10;99.90
17346;DHT22;8790;53.590;10.002;2023-04-15T00:51:47;10.10;99.90
17346;DHT22;8790;53.590;10.002;2023-04-15T00:54:19;10.10;99.90
17346;DHT22;8790;53.590;10.002;2023-04-15T00:56:51;10.10;99.90
17346;DHT22;8790;53.590;10.002;2023-04-15T00:59:23;10.10;99.90
17346;DHT22;8790;53.590;10.002;2023-04-15T01:01:57;10.20;99.90
17346;DHT22;8790;53.590;10.002;2023-04-15T01:04:29;10.20;99.90
17346;DHT22;8790;53.590;10.002;2023-04-15T01:07:01;10.20;99.90
17346;DHT22;8790;53.590;10.002;2023-04-15T01:09:33;10.10;99.90
17346;DHT22;8790;53.590;10.002;2023-04-15T01:12:05;10.10;99.90
17346;DHT22;8790;53.590;10.002;2023-04-15T01:14:38;10.00;99.90
17346;DHT22;8790;53.590;10.002;2023-04-15T01:17:11;10.00;99.90
17346;DHT22;8790;53.590;10.002;2023-04-15T01:19:44;10.00;99.90
17346;DHT22;8790;53.590;10.002;2023-04-15T01:22:16;9.90;99.90
17346;DHT22;8790;53.590;10.002;2023-04-15T01:24:53;9.90;99.90
17346;DHT22;8790;53.590;10.002;2023-04-15T01:27:27;9.90;99.90
17346;DHT22;8790;53.590;10.002;2023-04-15T01:29:59;10.00;99.90
17346;DHT22;8790;53.590;10.002;2023-04-15T01:32:35;10.00;99.90
17346;DHT22;8790;53.590;10.002;2023-04-15T01:35:08;10.00;99.90
17346;DHT22;8790;53.590;10.002;2023-04-15T01:37:40;10.00;99.90
17346;DHT22;8790;53.590;10.002;2023-04-15T01:40:12;10.00;99.90
17346;DHT22;8790;53.590;10.002;2023-04-15T01:42:46;10.00;99.90
17346;DHT22;8790;53.590;10.002;2023-04-15T01:45:19;10.10;99.90
17346;DHT22;8790;53.590;10.002;2023-04-15T01:47:51;10.00;99.90
17346;DHT22;8790;53.590;10.002;2023-04-15T01:50:23;10.10;99.90
17346;DHT22;8790;53.590;10.002;2023-04-15T01:52:55;10.10;99.90
17346;DHT22;8790;53.590;10.002;2023-04-15T01:55:28;10.10;99.90
17346;DHT22;8790;53.590;10.002;2023-04-15T01:58:01;10.00;99.90
17346;DHT22;8790;53.590;10.002;2023-04-15T02:00:33;10.00;99.90
17346;DHT22;8790;53.590;10.002;2023-04-15T02:03:05;10.00;99.90
17346;DHT22;8790;53.590;10.002;2023-04-15T02:05:37;10.10;99.90
17346;DHT22;8790;53.590;10.002;2023-04-15T02:08:09;10.10;99.90
17346;DHT22;8790;53.590;10.002;2023-04-15T02:10:42;10.00;99.90
17346;DHT22;8790;53.590;10.002;2023-04-15T02:13:15;10.00;99.90
17346;DHT22;8790;53.590;10.002;2023-04-15T02:15:47;10.00;99.90
17346;DHT22;8790;53.590;10.002;2023-04-15T02:18:19;10.10;99.90
17346;DHT22;8790;53.590;10.002;2023-04-15T02:20:51;10.00;99.90
17346;DHT22;8790;53.590;10.002;2023-04-15T02:23:23;10.00;99.90
17346;DHT22;8790;53.590;10.002;2023-04-15T02:25:55;10.00;99.90
17346;DHT22;8790;53.590;10.002;2023-04-15T02:28:28;10.00;99.90
17346;DHT22;8790;53.590;10.002;2023-04-15T02:31:00;10.00;99.90
17346;DHT22;8790;53.590;10.002;2023-04-15T02:33:35;10.00;99.90
17346;DHT22;8790;53.590;10.002;2023-04-15T02:36:07;10.00;99.90
17346;DHT22;8790;53.590;10.002;2023-04-15T02:38:40;10.00;99.90
17346;DHT22;8790;53.590;10.002;2023-04-15T02:41:12;10.00;99.90
17346;DHT22;8790;53.590;10.002;2023-04-15T02:43:46;10.00;99.90
17346;DHT22;8790;53.590;10.002;2023-04-15T02:46:18;10.00;99.90
17346;DHT22;8790;53.590;10.002;2023-04-15T02:48:52;10.10;99.90
17346;DHT22;8790;53.590;10.002;2023-04-15T02:51:29;10.00;99.90
17346;DHT22;8790;53.590;10.002;2023-04-15T02:54:01;10.00;99.90
17346;DHT22;8790;53.590;10.002;2023-04-15T02:56:33;10.00;99.90
17346;DHT22;8790;53.590;10.002;2023-04-15T02:59:06;9.90;99.90
17346;DHT22;8790;53.590;10.002;2023-04-15T03:01:38;9.80;99.90
17346;DHT22;8790;53.590;10.002;2023-04-15T03:04:10;9.80;99.90
17346;DHT22;8790;53.590;10.002;2023-04-15T03:06:42;9.80;99.90
17346;DHT22;8790;53.590;10.002;2023-04-15T03:09:14;9.80;99.90
17346;DHT22;8790;53.590;10.002;2023-04-15T03:11:47;9.90;99.90
17346;DHT22;8790;53.590;10.002;2023-04-15T03:14:20;9.90;99.90
17346;DHT22;8790;53.590;10.002;2023-04-15T03:16:53;9.90;99.90
17346;DHT22;8790;53.590;10.002;2023-04-15T03:19:24;9.90;99.90
17346;DHT22;8790;53.590;10.002;2023-04-15T03:21:56;9.80;99.90
17346;DHT22;8790;53.590;10.002;2023-04-15T03:24:28;9.90;99.90
17346;DHT22;8790;53.590;10.002;2023-04-15T03:27:01;9.90;99.90
17346;DHT22;8790;53.590;10.002;2023-04-15T03:29:35;9.90;99.90
17346;DHT22;8790;53.590;10.002;2023-04-15T03:32:06;9.90;99.90
17346;DHT22;8790;53.590;10.002;2023-04-15T03:34:38;9.90;99.90
17346;DHT22;8790;53.590;10.002;2023-04-15T03:37:10;9.90;99.90
17346;DHT22;8790;53.590;10.002;2023-04-15T03:39:42;9.90;99.90
17346;DHT22;8790;53.590;10.002;2023-04-15T03:42:14;9.80;99.90
17346;DHT22;8790;53.590;10.002;2023-04-15T03:44:47;9.80;99.90
17346;DHT22;8790;53.590;10.002;2023-04-15T03:47:19;9.80;99.90
17346;DHT22;8790;53.590;10.002;2023-04-15T03:49:50;9.80;99.90
17346;DHT22;8790;53.590;10.002;2023-04-15T03:52:23;9.80;99.90
17346;DHT22;8790;53.590;10.002;2023-04-15T03:54:55;9.80;99.90
17346;DHT22;8790;53.590;10.002;2023-04-15T03:57:27;9.80;99.90
17346;DHT22;8790;53.590;10.002;2023-04-15T04:00:00;9.70;99.90
17346;DHT22;8790;53.590;10.002;2023-04-15T04:02:42;9.80;99.90
17346;DHT22;8790;53.590;10.002;2023-04-15T04:05:15;9.80;99.90
17346;DHT22;8790;53.590;10.002;2023-04-15T04:07:47;9.80;99.90
17346;DHT22;8790;53.590;10.002;2023-04-15T04:10:19;9.80;99.90
17346;DHT22;8790;53.590;10.002;2023-04-15T04:12:50;9.80;99.90
17346;DHT22;8790;53.590;10.002;2023-04-15T04:15:23;9.80;99.90
17346;DHT22;8790;53.590;10.002;2023-04-15T04:17:55;9.80;99.90
17346;DHT22;8790;53.590;10.002;2023-04-15T04:20:27;9.70;99.90
17346;DHT22;8790;53.590;10.002;2023-04-15T04:22:58;9.80;99.90
17346;DHT22;8790;53.590;10.002;2023-04-15T04:25:30;9.80;99.90
17346;DHT22;8790;53.590;10.002;2023-04-15T04:28:02;9.80;99.90
17346;DHT22;8790;53.590;10.002;2023-04-15T04:30:36;9.90;99.90
17346;DHT22;8790;53.590;10.002;2023-04-15T04:33:07;9.90;99.90
17346;DHT22;8790;53.590;10.002;2023-04-15T04:35:39;9.80;99.90
17346;DHT22;8790;53.590;10.002;2023-04-15T04:38:11;9.80;99.90
17346;DHT22;8790;53.590;10.002;2023-04-15T04:40:42;9.80;99.90
17346;DHT22;8790;53.590;10.002;2023-04-15T04:43:14;9.90;99.90
17346;DHT22;8790;53.590;10.002;2023-04-15T04:45:47;9.90;99.90
17346;DHT22;8790;53.590;10.002;2023-04-15T04:48:19;9.80;99.90
17346;DHT22;8790;53.590;10.002;2023-04-15T04:50:51;9.80;99.90
17346;DHT22;8790;53.590;10.002;2023-04-15T04:53:23;9.90;99.90
17346;DHT22;8790;53.590;10.002;2023-04-15T04:55:54;9.90;99.90
17346;DHT22;8790;53.590;10.002;2023-04-15T04:58:26;9.80;99.90
17346;DHT22;8790;53.590;10.002;2023-04-15T05:00:59;9.80;99.90
17346;DHT22;8790;53.590;10.002;2023-04-15T05:03:32;9.80;99.90
17346;DHT22;8790;53.590;10.002;2023-04-15T05:06:04;9.80;99.90
17346;DHT22;8790;53.590;10.002;2023-04-15T05:08:38;9.80;99.90
17346;DHT22;8790;53.590;10.002;2023-04-15T05:11:10;9.80;99.90
17346;DHT22;8790;53.590;10.002;2023-04-15T05:13:42;9.80;99.90
17346;DHT22;8790;53.590;10.002;2023-04-15T05:16:15;9.90;99.90
17346;DHT22;8790;53.590;10.002;2023-04-15T05:18:47;9.90;99.90
17346;DHT22;8790;53.590;10.002;2023-04-15T05:21:18;9.90;99.90
17346;DHT22;8790;53.590;10.002;2023-04-15T05:23:50;9.90;99.90
17346;DHT22;8790;53.590;10.002;2023-04-15T05:26:22;9.90;99.90
17346;DHT22;8790;53.590;10.002;2023-04-15T05:28:54;9.80;99.90
17346;DHT22;8790;53.590;10.002;2023-04-15T05:31:27;9.80;99.90
17346;DHT22;8790;53.590;10.002;2023-04-15T05:33:59;9.70;99.90
17346;DHT22;8790;53.590;10.002;2023-04-15T05:36:31;9.80;99.90
17346;DHT22;8790;53.590;10.002;2023-04-15T05:39:02;9.90;99.90
17346;DHT22;8790;53.590;10.002;2023-04-15T05:41:34;9.90;99.90
17346;DHT22;8790;53.590;10.002;2023-04-15T05:44:06;9.80;99.90
17346;DHT22;8790;53.590;10.002;2023-04-15T05:46:39;9.80;99.90
17346;DHT22;8790;53.590;10.002;2023-04-15T05:49:11;9.80;99.90
17346;DHT22;8790;53.590;10.002;2023-04-15T05:51:42;9.90;99.90
17346;DHT22;8790;53.590;10.002;2023-04-15T05:54:14;9.90;99.90
17346;DHT22;8790;53.590;10.002;2023-04-15T05:56:46;9.90;99.90
17346;DHT22;8790;53.590;10.002;2023-04-15T05:59:18;9.90;99.90
17346;DHT22;8790;53.590;10.002;2023-04-15T06:01:51;9.90;99.90
17346;DHT22;8790;53.590;10.002;2023-04-15T06:04:23;9.90;99.90
17346;DHT22;8790;53.590;10.002;2023-04-15T06:06:54;9.90;99.90
17346;DHT22;8790;53.590;10.002;2023-04-15T06:09:26;9.90;99.90
17346;DHT22;8790;53.590;10.002;2023-04-15T06:11:58;9.90;99.90
17346;DHT22;8790;53.590;10.002;2023-04-15T06:14:31;9.80;99.90
17346;DHT22;8790;53.590;10.002;2023-04-15T06:17:04;9.90;99.90
17346;DHT22;8790;53.590;10.002;2023-04-15T06:19:36;9.90;99.90
17346;DHT22;8790;53.590;10.002;2023-04-15T06:22:09;9.90;99.90
17346;DHT22;8790;53.590;10.002;2023-04-15T06:24:40;9.80;99.90
17346;DHT22;8790;53.590;10.002;2023-04-15T06:27:12;9.80;99.90
17346;DHT22;8790;53.590;10.002;2023-04-15T06:29:44;9.80;99.90
17346;DHT22;8790;53.590;10.002;2023-04-15T06:32:17;9.70;99.90
17346;DHT22;8790;53.590;10.002;2023-04-15T06:34:48;9.60;99.90
17346;DHT22;8790;53.590;10.002;2023-04-15T06:37:20;9.70;99.90
17346;DHT22;8790;53.590;10.002;2023-04-15T06:39:52;9.70;99.90
17346;DHT22;8790;53.590;10.002;2023-04-15T06:42:23;9.80;99.90
17346;DHT22;8790;53.590;10.002;2023-04-15T06:44:55;9.80;99.90
17346;DHT22;8790;53.590;10.002;2023-04-15T06:47:28;9.80;99.90
17346;DHT22;8790;53.590;10.002;2023-04-15T06:50:00;9.80;99.90
17346;DHT22;8790;53.590;10.002;2023-04-15T06:52:33;9.80;99.90
17346;DHT22;8790;53.590;10.002;2023-04-15T06:55:06;9.80;99.90
17346;DHT22;8790;53.590;10.002;2023-04-15T06:57:38;9.90;99.90
17346;DHT22;8790;53.590;10.002;2023-04-15T07:00:11;9.90;99.90
17346;DHT22;8790;53.590;10.002;2023-04-15T07:02:44;9.90;99.90
17346;DHT22;8790;53.590;10.002;2023-04-15T07:05:16;9.90;99.90
17346;DHT22;8790;53.590;10.002;2023-04-15T07:07:48;10.00;99.90
17346;DHT22;8790;53.590;10.002;2023-04-15T07:10:21;10.00;99.90
17346;DHT22;8790;53.590;10.002;2023-04-15T07:12:53;10.00;99.90
17346;DHT22;8790;53.590;10.002;2023-04-15T07:15:25;10.00;99.90
17346;DHT22;8790;53.590;10.002;2023-04-15T07:17:58;10.00;99.90
17346;DHT22;8790;53.590;10.002;2023-04-15T07:20:30;10.00;99.90
17346;DHT22;8790;53.590;10.002;2023-04-15T07:23:02;10.10;99.90
17346;DHT22;8790;53.590;10.002;2023-04-15T07:25:33;10.10;99.90
17346;DHT22;8790;53.590;10.002;2023-04-15T07:28:05;10.10;99.90
17346;DHT22;8790;53.590;10.002;2023-04-15T07:30:37;10.10;99.90
17346;DHT22;8790;53.590;10.002;2023-04-15T07:33:10;10.10;99.90
17346;DHT22;8790;53.590;10.002;2023-04-15T07:35:42;10.20;99.90
17346;DHT22;8790;53.590;10.002;2023-04-15T07:38:14;10.20;99.90
17346;DHT22;8790;53.590;10.002;2023-04-15T07:40:46;10.30;99.90
17346;DHT22;8790;53.590;10.002;2023-04-15T07:43:18;10.20;99.90
17346;DHT22;8790;53.590;10.002;2023-04-15T07:45:50;10.30;99.90
17346;DHT22;8790;53.590;10.002;2023-04-15T07:48:23;10.20;99.90
17346;DHT22;8790;53.590;10.002;2023-04-15T07:50:55;10.20;99.90
17346;DHT22;8790;53.590;10.002;2023-04-15T07:53:27;10.20;99.90
17346;DHT22;8790;53.590;10.002;2023-04-15T07:55:59;10.30;99.90
17346;DHT22;8790;53.590;10.002;2023-04-15T07:58:31;10.30;99.90
17346;DHT22;8790;53.590;10.002;2023-04-15T08:01:03;10.30;99.90
17346;DHT22;8790;53.590;10.002;2023-04-15T08:03:38;10.30;99.90
17346;DHT22;8790;53.590;10.002;2023-04-15T08:06:09;10.30;99.90
17346;DHT22;8790;53.590;10.002;2023-04-15T08:08:41;10.20;99.90
17346;DHT22;8790;53.590;10.002;2023-04-15T08:11:13;10.30;99.90
17346;DHT22;8790;53.590;10.002;2023-04-15T08:13:45;10.30;99.90
17346;DHT22;8790;53.590;10.002;2023-04-15T08:16:19;10.40;99.90
17346;DHT22;8790;53.590;10.002;2023-04-15T08:18:54;10.30;99.90
17346;DHT22;8790;53.590;10.002;2023-04-15T08:21:26;10.40;99.90
17346;DHT22;8790;53.590;10.002;2023-04-15T08:24:00;10.40;99.90
17346;DHT22;8790;53.590;10.002;2023-04-15T08:26:32;10.40;99.90
17346;DHT22;8790;53.590;10.002;2023-04-15T08:29:04;10.30;99.90
17346;DHT22;8790;53.590;10.002;2023-04-15T08:31:36;10.40;99.90
17346;DHT22;8790;53.590;10.002;2023-04-15T08:34:10;10.50;99.90
17346;DHT22;8790;53.590;10.002;2023-04-15T08:36:42;10.50;99.90
17346;DHT22;8790;53.590;10.002;2023-04-15T08:39:14;10.50;99.90
17346;DHT22;8790;53.590;10.002;2023-04-15T08:41:47;10.50;99.90
17346;DHT22;8790;53.590;10.002;2023-04-15T08:44:23;10.50;99.90
17346;DHT22;8790;53.590;10.002;2023-04-15T08:46:56;10.50;99.90
17346;DHT22;8790;53.590;10.002;2023-04-15T08:49:35;10.50;99.90
17346;DHT22;8790;53.590;10.002;2023-04-15T08:52:09;10.50;99.90
17346;DHT22;8790;53.590;10.002;2023-04-15T08:54:41;10.60;99.90
17346;DHT22;8790;53.590;10.002;2023-04-15T08:57:14;10.60;99.90
17346;DHT22;8790;53.590;10.002;2023-04-15T08:59:46;10.60;99.90
17346;DHT22;8790;53.590;10.002;2023-04-15T09:02:19;10.60;99.90
17346;DHT22;8790;53.590;10.002;2023-04-15T09:04:52;10.60;99.90
17346;DHT22;8790;53.590;10.002;2023-04-15T09:07:24;10.60;99.90
17346;DHT22;8790;53.590;10.002;2023-04-15T09:09:56;10.60;99.90
17346;DHT22;8790;53.590;10.002;2023-04-15T09:12:28;10.50;99.90
17346;DHT22;8790;53.590;10.002;2023-04-15T09:15:00;10.60;99.90
17346;DHT22;8790;53.590;10.002;2023-04-15T09:17:32;10.60;99.90
17346;DHT22;8790;53.590;10.002;2023-04-15T09:20:10;10.70;99.90
17346;DHT22;8790;53.590;10.002;2023-04-15T09:22:47;10.70;99.90
17346;DHT22;8790;53.590;10.002;2023-04-15T09:25:29;10.70;99.90
17346;DHT22;8790;53.590;10.002;2023-04-15T09:28:01;10.70;99.90
17346;DHT22;8790;53.590;10.002;2023-04-15T09:30:33;10.70;99.90
17346;DHT22;8790;53.590;10.002;2023-04-15T09:33:05;10.80;99.90
17346;DHT22;8790;53.590;10.002;2023-04-15T09:35:39;10.90;99.90
17346;DHT22;8790;53.590;10.002;2023-04-15T09:38:11;10.90;99.90
17346;DHT22;8790;53.590;10.002;2023-04-15T09:40:42;11.00;99.90
17346;DHT22;8790;53.590;10.002;2023-04-15T09:43:14;11.10;99.90
17346;DHT22;8790;53.590;10.002;2023-04-15T09:45:47;11.10;99.90
17346;DHT22;8790;53.590;10.002;2023-04-15T09:48:21;11.20;99.90
17346;DHT22;8790;53.590;10.002;2023-04-15T09:50:57;11.10;99.90
17346;DHT22;8790;53.590;10.002;2023-04-15T09:53:33;11.20;99.90
17346;DHT22;8790;53.590;10.002;2023-04-15T09:56:05;11.10;99.90
17346;DHT22;8790;53.590;10.002;2023-04-15T09:58:38;11.20;99.90
17346;DHT22;8790;53.590;10.002;2023-04-15T10:01:11;11.30;99.90
17346;DHT22;8790;53.590;10.002;2023-04-15T10:03:44;11.30;99.90
17346;DHT22;8790;53.590;10.002;2023-04-15T10:06:18;11.40;99.90
17346;DHT22;8790;53.590;10.002;2023-04-15T10:08:50;11.40;99.90
17346;DHT22;8790;53.590;10.002;2023-04-15T10:11:22;11.40;99.90
17346;DHT22;8790;53.590;10.002;2023-04-15T10:13:55;11.40;99.90
17346;DHT22;8790;53.590;10.002;2023-04-15T10:16:28;11.50;99.90
17346;DHT22;8790;53.590;10.002;2023-04-15T10:19:01;11.60;99.90
17346;DHT22;8790;53.590;10.002;2023-04-15T10:21:36;11.80;99.90
17346;DHT22;8790;53.590;10.002;2023-04-15T10:24:08;11.90;99.90
17346;DHT22;8790;53.590;10.002;2023-04-15T10:26:41;12.00;99.90
17346;DHT22;8790;53.590;10.002;2023-04-15T10:29:13;12.10;99.90
17346;DHT22;8790;53.590;10.002;2023-04-15T10:31:46;12.20;99.90
17346;DHT22;8790;53.590;10.002;2023-04-15T10:34:18;12.20;99.90
17346;DHT22;8790;53.590;10.002;2023-04-15T10:36:54;12.30;99.90
17346;DHT22;8790;53.590;10.002;2023-04-15T10:39:41;12.30;99.90
17346;DHT22;8790;53.590;10.002;2023-04-15T10:42:15;12.40;99.90
17346;DHT22;8790;53.590;10.002;2023-04-15T10:44:49;12.40;99.90
17346;DHT22;8790;53.590;10.002;2023-04-15T10:47:21;12.50;99.90
17346;DHT22;8790;53.590;10.002;2023-04-15T10:49:56;12.70;99.90
17346;DHT22;8790;53.590;10.002;2023-04-15T10:52:30;12.80;99.90
17346;DHT22;8790;53.590;10.002;2023-04-15T10:55:11;13.00;99.90
17346;DHT22;8790;53.590;10.002;2023-04-15T10:57:43;13.40;99.90
17346;DHT22;8790;53.590;10.002;2023-04-15T11:00:16;13.70;99.90
17346;DHT22;8790;53.590;10.002;2023-04-15T11:02:52;13.60;99.90
17346;DHT22;8790;53.590;10.002;2023-04-15T11:05:47;13.70;99.90
17346;DHT22;8790;53.590;10.002;2023-04-15T11:08:55;14.20;99.90
17346;DHT22;8790;53.590;10.002;2023-04-15T11:12:05;14.40;99.90
17346;DHT22;8790;53.590;10.002;2023-04-15T11:14:39;14.40;99.90
17346;DHT22;8790;53.590;10.002;2023-04-15T11:17:12;14.30;99.90
17346;DHT22;8790;53.590;10.002;2023-04-15T11:19:45;14.20;99.90
17346;DHT22;8790;53.590;10.002;2023-04-15T11:22:16;14.20;99.90
17346;DHT22;8790;53.590;10.002;2023-04-15T11:24:50;14.20;99.90
17346;DHT22;8790;53.590;10.002;2023-04-15T11:27:22;14.20;99.90
17346;DHT22;8790;53.590;10.002;2023-04-15T11:29:54;14.20;99.90
17346;DHT22;8790;53.590;10.002;2023-04-15T11:32:25;14.10;99.90
17346;DHT22;8790;53.590;10.002;2023-04-15T11:34:57;14.10;99.90
17346;DHT22;8790;53.590;10.002;2023-04-15T11:37:29;14.10;99.90
17346;DHT22;8790;53.590;10.002;2023-04-15T11:40:06;14.00;99.90
17346;DHT22;8790;53.590;10.002;2023-04-15T11:42:38;14.00;99.90
17346;DHT22;8790;53.590;10.002;2023-04-15T11:45:13;14.00;99.90
17346;DHT22;8790;53.590;10.002;2023-04-15T11:47:45;13.90;99.90
17346;DHT22;8790;53.590;10.002;2023-04-15T11:50:17;13.90;99.90
17346;DHT22;8790;53.590;10.002;2023-04-15T11:52:53;13.80;99.90
17346;DHT22;8790;53.590;10.002;2023-04-15T11:55:26;13.80;99.90
17346;DHT22;8790;53.590;10.002;2023-04-15T11:58:08;13.80;99.90
17346;DHT22;8790;53.590;10.002;2023-04-15T12:00:44;13.80;99.90
17346;DHT22;8790;53.590;10.002;2023-04-15T12:03:22;13.90;99.90
17346;DHT22;8790;53.590;10.002;2023-04-15T12:06:08;13.80;99.90
17346;DHT22;8790;53.590;10.002;2023-04-15T12:08:57;13.80;99.90
17346;DHT22;8790;53.590;10.002;2023-04-15T12:11:36;13.80;99.90
17346;DHT22;8790;53.590;10.002;2023-04-15T12:14:11;13.80;99.90
17346;DHT22;8790;53.590;10.002;2023-04-15T12:16:44;13.80;99.90
17346;DHT22;8790;53.590;10.002;2023-04-15T12:19:21;13.80;99.90
17346;DHT22;8790;53.590;10.002;2023-04-15T12:21:57;13.80;99.90
17346;DHT22;8790;53.590;10.002;2023-04-15T12:24:31;13.80;99.90
17346;DHT22;8790;53.590;10.002;2023-04-15T12:27:05;13.70;99.90
17346;DHT22;8790;53.590;10.002;2023-04-15T12:29:38;13.70;99.90
17346;DHT22;8790;53.590;10.002;2023-04-15T12:32:11;13.70;99.90
17346;DHT22;8790;53.590;10.002;2023-04-15T12:34:47;13.70;99.90
17346;DHT22;8790;53.590;10.002;2023-04-15T12:37:20;13.70;99.90
17346;DHT22;8790;53.590;10.002;2023-04-15T12:39:52;13.70;99.90
17346;DHT22;8790;53.590;10.002;2023-04-15T12:42:25;13.70;99.90
17346;DHT22;8790;53.590;10.002;2023-04-15T12:44:57;13.70;99.90
17346;DHT22;8790;53.590;10.002;2023-04-15T12:47:29;13.70;99.90
17346;DHT22;8790;53.590;10.002;2023-04-15T12:50:00;13.70;99.90
17346;DHT22;8790;53.590;10.002;2023-04-15T12:52:32;13.70;99.90
17346;DHT22;8790;53.590;10.002;2023-04-15T12:55:05;13.70;99.90
17346;DHT22;8790;53.590;10.002;2023-04-15T12:57:38;13.80;99.90
17346;DHT22;8790;53.590;10.002;2023-04-15T13:00:11;13.80;99.90
17346;DHT22;8790;53.590;10.002;2023-04-15T13:02:43;13.80;99.90
17346;DHT22;8790;53.590;10.002;2023-04-15T13:05:15;13.80;99.90
17346;DHT22;8790;53.590;10.002;2023-04-15T13:07:47;13.80;99.90
17346;DHT22;8790;53.590;10.002;2023-04-15T13:10:18;13.80;99.90
17346;DHT22;8790;53.590;10.002;2023-04-15T13:12:52;13.90;99.90
17346;DHT22;8790;53.590;10.002;2023-04-15T13:15:26;13.90;99.90
17346;DHT22;8790;53.590;10.002;2023-04-15T13:17:58;13.90;99.90
17346;DHT22;8790;53.590;10.002;2023-04-15T13:20:29;13.90;99.90
17346;DHT22;8790;53.590;10.002;2023-04-15T13:23:01;13.90;99.90
17346;DHT22;8790;53.590;10.002;2023-04-15T13:25:33;13.90;99.90
17346;DHT22;8790;53.590;10.002;2023-04-15T13:28:06;14.00;99.90
17346;DHT22;8790;53.590;10.002;2023-04-15T13:30:38;14.00;99.90
17346;DHT22;8790;53.590;10.002;2023-04-15T13:33:10;14.00;99.90
17346;DHT22;8790;53.590;10.002;2023-04-15T13:35:42;14.10;99.90
17346;DHT22;8790;53.590;10.002;2023-04-15T13:38:14;14.10;99.90
17346;DHT22;8790;53.590;10.002;2023-04-15T13:40:46;14.10;99.90
17346;DHT22;8790;53.590;10.002;2023-04-15T13:43:20;14.10;99.90
17346;DHT22;8790;53.590;10.002;2023-04-15T13:45:52;14.20;99.90
17346;DHT22;8790;53.590;10.002;2023-04-15T13:48:23;14.20;99.90
17346;DHT22;8790;53.590;10.002;2023-04-15T13:50:55;14.20;99.90
17346;DHT22;8790;53.590;10.002;2023-04-15T13:53:27;14.30;99.90
17346;DHT22;8790;53.590;10.002;2023-04-15T13:56:00;14.40;99.90
17346;DHT22;8790;53.590;10.002;2023-04-15T13:58:33;14.50;99.90
17346;DHT22;8790;53.590;10.002;2023-04-15T14:01:05;14.70;99.90
17346;DHT22;8790;53.590;10.002;2023-04-15T14:03:36;14.90;99.90
17346;DHT22;8790;53.590;10.002;2023-04-15T14:06:08;15.10;99.90
17346;DHT22;8790;53.590;10.002;2023-04-15T14:08:40;15.30;99.90
17346;DHT22;8790;53.590;10.002;2023-04-15T14:11:12;15.40;99.90
17346;DHT22;8790;53.590;10.002;2023-04-15T14:13:45;15.50;99.90
17346;DHT22;8790;53.590;10.002;2023-04-15T14:16:17;15.60;99.90
17346;DHT22;8790;53.590;10.002;2023-04-15T14:18:48;15.70;99.90
17346;DHT22;8790;53.590;10.002;2023-04-15T14:21:20;15.80;99.90
17346;DHT22;8790;53.590;10.002;2023-04-15T14:23:52;15.80;99.90
17346;DHT22;8790;53.590;10.002;2023-04-15T14:26:24;15.90;99.90
17346;DHT22;8790;53.590;10.002;2023-04-15T14:28:57;16.10;99.90
17346;DHT22;8790;53.590;10.002;2023-04-15T14:31:29;16.20;99.90
17346;DHT22;8790;53.590;10.002;2023-04-15T14:34:00;16.40;99.90
17346;DHT22;8790;53.590;10.002;2023-04-15T14:36:32;16.70;99.90
17346;DHT22;8790;53.590;10.002;2023-04-15T14:39:04;16.90;99.90
17346;DHT22;8790;53.590;10.002;2023-04-15T14:41:35;17.00;99.90
17346;DHT22;8790;53.590;10.002;2023-04-15T14:44:08;17.10;99.90
17346;DHT22;8790;53.590;10.002;2023-04-15T14:46:41;17.10;99.90
17346;DHT22;8790;53.590;10.002;2023-04-15T14:49:12;17.00;99.90
17346;DHT22;8790;53.590;10.002;2023-04-15T14:51:44;17.00;99.90
17346;DHT22;8790;53.590;10.002;2023-04-15T14:54:16;17.00;99.90
17346;DHT22;8790;53.590;10.002;2023-04-15T14:56:48;16.90;99.90
17346;DHT22;8790;53.590;10.002;2023-04-15T14:59:21;17.00;99.90
17346;DHT22;8790;53.590;10.002;2023-04-15T15:01:52;17.10;99.90
17346;DHT22;8790;53.590;10.002;2023-04-15T15:04:24;17.10;99.90
17346;DHT22;8790;53.590;10.002;2023-04-15T15:06:56;17.00;99.90
17346;DHT22;8790;53.590;10.002;2023-04-15T15:09:28;17.00;99.90
17346;DHT22;8790;53.590;10.002;2023-04-15T15:11:59;17.00;99.90
17346;DHT22;8790;53.590;10.002;2023-04-15T15:14:32;16.90;99.90
17346;DHT22;8790;53.590;10.002;2023-04-15T15:17:04;16.80;99.90
17346;DHT22;8790;53.590;10.002;2023-04-15T15:19:36;16.60;99.90
17346;DHT22;8790;53.590;10.002;2023-04-15T15:22:07;16.50;99.90
17346;DHT22;8790;53.590;10.002;2023-04-15T15:24:39;16.40;99.90
17346;DHT22;8790;53.590;10.002;2023-04-15T15:27:11;16.20;99.90
17346;DHT22;8790;53.590;10.002;2023-04-15T15:29:44;16.20;99.90
17346;DHT22;8790;53.590;10.002;2023-04-15T15:32:16;16.20;99.90
17346;DHT22;8790;53.590;10.002;2023-04-15T15:34:48;15.90;99.90
17346;DHT22;8790;53.590;10.002;2023-04-15T15:37:19;15.80;99.90
17346;DHT22;8790;53.590;10.002;2023-04-15T15:39:51;15.80;99.90
17346;DHT22;8790;53.590;10.002;2023-04-15T15:42:23;15.80;99.90
17346;DHT22;8790;53.590;10.002;2023-04-15T15:44:57;15.70;99.90
17346;DHT22;8790;53.590;10.002;2023-04-15T15:47:28;15.40;99.90
17346;DHT22;8790;53.590;10.002;2023-04-15T15:50:00;15.20;99.90
17346;DHT22;8790;53.590;10.002;2023-04-15T15:52:32;15.20;99.90
17346;DHT22;8790;53.590;10.002;2023-04-15T15:55:05;15.10;99.90
17346;DHT22;8790;53.590;10.002;2023-04-15T15:57:36;15.20;99.90
17346;DHT22;8790;53.590;10.002;2023-04-15T16:00:11;15.10;99.90
17346;DHT22;8790;53.590;10.002;2023-04-15T16:02:43;15.10;99.90
17346;DHT22;8790;53.590;10.002;2023-04-15T16:05:15;15.00;99.90
17346;DHT22;8790;53.590;10.002;2023-04-15T16:07:47;14.90;99.90
17346;DHT22;8790;53.590;10.002;2023-04-15T16:10:18;15.00;99.90